East Bend, North Carolina
Current Conditions -  °F | °C
As of 10:54 AM on Thursday 29 Jan 2015 (Local Time) from KINT Reporting Station
Clear Clear  
Wind Chill: 36°   Ceiling: Unl
Heat Index: 41°   Visibility: 10mi
Dew Point: 20°   Wind: 8mph
Humidity: 43%   Direction: 220°SW
Pressure: 30.28"   Gusts: NA
Location:  36.22°N, 80.51°W
Report Text: KINT 291554Z 22007KT 10SM CLR 05/M07 A3028 RMK AO2 SLP258 T00501067
Loading
Personal Weather Stations






























Interactive Weather Map New forecast layout! Learn more

10-Day Weather Forecast

Advertisements
Track Severe Weather on mobile